Time;durP1;ratioP1;P1;durP2;ratioP2;P2;SDS_P1;SDS_P2;PMS_P1;PMS_P2;Temp;Humidity;BMP_temperature;BMP_pressure;BME280_temperature;BME280_humidity;BME280_pressure;Samples;Min_cycle;Max_cycle;Signal;HPM_P1;HPM_P2
2022/06/18 00:00:39;;;;;;;3.53;1.50;;;21.30;58.60;;;;;;10430574;28;20250;-68
2022/06/18 00:05:41;;;;;;;2.00;1.10;;;21.20;59.20;;;;;;10432667;28;20224;-69
2022/06/18 00:10:43;;;;;;;2.37;1.70;;;21.10;59.70;;;;;;10443591;28;20300;-70
2022/06/18 00:15:43;;;;;;;1.80;1.67;;;21.00;60.00;;;;;;10429449;28;20299;-69
2022/06/18 00:20:44;;;;;;;1.97;1.40;;;20.90;60.10;;;;;;10432361;28;20312;-69
2022/06/18 00:25:50;;;;;;;1.87;1.23;;;21.00;60.10;;;;;;10430807;28;20226;-68
2022/06/18 00:30:52;;;;;;;2.13;1.50;;;21.00;59.30;;;;;;10435019;28;20251;-68
2022/06/18 00:35:56;;;;;;;2.73;1.63;;;21.00;59.60;;;;;;10438116;28;20310;-67
2022/06/18 00:40:58;;;;;;;3.00;1.43;;;21.00;59.40;;;;;;10431510;28;20592;-69
2022/06/18 00:46:29;;;;;;;1.67;1.20;;;21.00;59.20;;;;;;10433687;28;20223;-69
2022/06/18 00:51:49;;;;;;;2.17;1.00;;;20.90;59.20;;;;;;10420837;28;20221;-69
2022/06/18 00:56:53;;;;;;;1.27;1.17;;;20.90;59.20;;;;;;10434695;28;20223;-68
2022/06/18 01:01:56;;;;;;;2.07;1.20;;;20.90;58.90;;;;;;10424396;28;20298;-69
2022/06/18 01:07:03;;;;;;;3.63;1.20;;;20.90;58.90;;;;;;10430701;28;20222;-69
2022/06/18 01:12:04;;;;;;;3.67;1.20;;;20.90;59.00;;;;;;10426302;28;20220;-69
2022/06/18 01:17:06;;;;;;;1.77;1.10;;;20.80;59.30;;;;;;10425869;28;20236;-69
2022/06/18 01:22:31;;;;;;;2.53;1.30;;;20.80;59.40;;;;;;10431827;28;20657;-69
2022/06/18 01:27:32;;;;;;;2.13;1.40;;;20.70;59.60;;;;;;10436339;28;20269;-69
2022/06/18 01:32:32;;;;;;;2.43;1.50;;;20.60;60.10;;;;;;10435932;28;20230;-69
2022/06/18 01:37:33;;;;;;;2.60;1.30;;;20.50;60.60;;;;;;10427187;28;20641;-69
2022/06/18 01:42:42;;;;;;;2.17;1.53;;;20.40;61.40;;;;;;10439850;28;20290;-68
2022/06/18 01:47:49;;;;;;;4.37;1.50;;;20.30;61.90;;;;;;10437930;28;20228;-69
2022/06/18 01:52:58;;;;;;;1.80;1.30;;;20.20;62.20;;;;;;10437618;28;20288;-69
2022/06/18 01:58:09;;;;;;;1.93;1.60;;;20.00;63.40;;;;;;10432237;28;20220;-68
2022/06/18 02:03:09;;;;;;;2.70;1.50;;;20.00;64.40;;;;;;10434896;28;20216;-69
2022/06/18 02:08:12;;;;;;;2.70;1.60;;;19.90;66.40;;;;;;10439756;28;20219;-68
2022/06/18 02:13:14;;;;;;;1.70;1.30;;;19.70;65.80;;;;;;10439762;28;20223;-68
2022/06/18 02:18:17;;;;;;;3.43;1.87;;;19.70;66.50;;;;;;10431758;28;20228;-69
2022/06/18 02:23:19;;;;;;;1.73;1.57;;;19.60;67.00;;;;;;10439847;28;20208;-69
2022/06/18 02:28:30;;;;;;;1.80;1.50;;;19.50;67.30;;;;;;10423358;28;20691;-68
2022/06/18 02:33:43;;;;;;;2.83;1.67;;;19.40;67.70;;;;;;10437856;28;20285;-69
2022/06/18 02:38:47;;;;;;;2.40;1.50;;;19.30;68.20;;;;;;10431752;28;20228;-70
2022/06/18 02:43:47;;;;;;;2.93;1.83;;;19.30;69.00;;;;;;10435022;28;20216;-69
2022/06/18 02:48:48;;;;;;;3.40;2.87;;;19.30;69.80;;;;;;10426698;28;20296;-68
2022/06/18 02:53:49;;;;;;;5.53;2.90;;;19.30;70.20;;;;;;10434224;28;20901;-69
2022/06/18 02:58:50;;;;;;;5.37;2.57;;;19.30;71.10;;;;;;10433677;28;20216;-72
2022/06/18 03:03:57;;;;;;;4.27;2.30;;;19.20;70.80;;;;;;10434186;28;20723;-68
2022/06/18 03:09:01;;;;;;;3.53;1.97;;;19.20;71.10;;;;;;10442010;28;20259;-69
2022/06/18 03:14:04;;;;;;;3.97;2.00;;;19.20;71.30;;;;;;10436018;28;20308;-67
2022/06/18 03:19:05;;;;;;;2.93;2.00;;;19.10;71.00;;;;;;10432704;28;20220;-68
2022/06/18 03:24:09;;;;;;;2.00;1.83;;;19.10;70.50;;;;;;10437153;28;20234;-68
2022/06/18 03:29:10;;;;;;;3.43;1.90;;;19.10;70.70;;;;;;10431734;28;20216;-68
2022/06/18 03:34:11;;;;;;;1.93;1.80;;;19.20;70.80;;;;;;10429568;28;20220;-69
2022/06/18 03:39:12;;;;;;;3.37;1.73;;;19.30;70.70;;;;;;10422939;28;20710;-69
2022/06/18 03:44:12;;;;;;;2.93;2.00;;;19.40;70.50;;;;;;10437073;28;20765;-69
2022/06/18 03:49:28;;;;;;;1.80;1.60;;;19.60;69.40;;;;;;10429327;28;20216;-69
2022/06/18 03:54:29;;;;;;;3.10;2.03;;;19.80;68.70;;;;;;10436541;28;20688;-70
2022/06/18 03:59:30;;;;;;;4.50;1.90;;;20.10;67.30;;;;;;10427397;28;20227;-69
2022/06/18 04:04:30;;;;;;;1.93;1.83;;;20.30;67.00;;;;;;10426511;28;20243;-69
2022/06/18 04:09:31;;;;;;;2.60;1.63;;;20.50;66.20;;;;;;10432875;28;20311;-68
2022/06/18 04:14:31;;;;;;;1.80;1.70;;;20.50;66.10;;;;;;10429232;28;20269;-69
2022/06/18 04:19:32;;;;;;;1.97;1.67;;;20.70;66.00;;;;;;10433580;28;20725;-68
2022/06/18 04:24:33;;;;;;;3.90;1.30;;;20.80;65.50;;;;;;10425363;28;20217;-69
2022/06/18 04:29:34;;;;;;;3.77;1.90;;;21.00;65.40;;;;;;10428821;28;20225;-69
2022/06/18 04:34:35;;;;;;;3.20;2.00;;;21.20;64.40;;;;;;10432710;28;20234;-69
2022/06/18 04:39:35;;;;;;;6.00;2.20;;;21.40;63.90;;;;;;10428117;28;20252;-68
2022/06/18 04:44:36;;;;;;;3.03;1.80;;;21.70;62.90;;;;;;10425217;28;20300;-69
2022/06/18 04:49:40;;;;;;;3.60;2.00;;;21.90;61.90;;;;;;10429574;28;20231;-69
2022/06/18 04:54:40;;;;;;;2.60;1.70;;;22.20;61.10;;;;;;10435257;28;20244;-69
2022/06/18 04:59:41;;;;;;;2.90;1.57;;;22.40;60.20;;;;;;10424614;28;20257;-67
2022/06/18 05:04:42;;;;;;;2.27;1.90;;;22.70;59.50;;;;;;10428342;28;20240;-68
2022/06/18 05:09:42;;;;;;;2.03;1.70;;;23.80;58.30;;;;;;10429081;28;20216;-69
2022/06/18 05:14:46;;;;;;;4.33;1.93;;;25.60;54.40;;;;;;10428997;28;20251;-68
2022/06/18 05:19:47;;;;;;;3.27;1.90;;;27.10;51.00;;;;;;10429707;28;20687;-68
2022/06/18 05:24:48;;;;;;;3.53;1.83;;;28.40;48.50;;;;;;10425709;28;20221;-68
2022/06/18 05:29:49;;;;;;;2.03;1.77;;;29.20;46.80;;;;;;10428899;28;20220;-69
2022/06/18 05:34:50;;;;;;;3.07;1.80;;;30.10;45.40;;;;;;10420073;28;20248;-68
2022/06/18 05:39:53;;;;;;;3.40;2.03;;;30.80;43.70;;;;;;10428801;28;20326;-68
2022/06/18 05:44:54;;;;;;;7.47;1.90;;;31.20;42.50;;;;;;10423173;28;20870;-68
2022/06/18 05:49:58;;;;;;;3.70;2.60;;;31.50;41.80;;;;;;10424644;28;20299;-69
2022/06/18 05:54:59;;;;;;;3.03;2.50;;;32.00;41.60;;;;;;10429006;28;20772;-68
2022/06/18 06:00:07;;;;;;;5.33;2.37;;;32.70;40.90;;;;;;10426304;28;20269;-69
2022/06/18 06:05:07;;;;;;;5.63;2.50;;;33.50;39.70;;;;;;10422774;28;20279;-68
2022/06/18 06:15:43;;;;;;;3.20;2.20;;;34.50;37.60;;;;;;10428931;28;20220;-68
2022/06/18 06:20:46;;;;;;;3.70;2.07;;;34.80;37.10;;;;;;10435195;28;20252;-69
2022/06/18 06:25:49;;;;;;;4.70;2.10;;;35.10;36.40;;;;;;10435460;28;20643;-69
2022/06/18 06:30:50;;;;;;;2.97;1.67;;;35.70;36.40;;;;;;10438326;28;20251;-69
2022/06/18 06:35:51;;;;;;;2.43;2.00;;;36.40;35.40;;;;;;10432704;28;20712;-69
2022/06/18 06:40:54;;;;;;;2.23;1.80;;;36.80;34.20;;;;;;10434772;28;20232;-69
2022/06/18 06:45:55;;;;;;;3.57;1.80;;;37.10;34.00;;;;;;10433140;28;20726;-69
2022/06/18 06:50:55;;;;;;;5.73;1.87;;;37.40;33.80;;;;;;10430840;28;20247;-69
2022/06/18 07:01:20;;;;;;;2.57;1.70;;;38.30;32.30;;;;;;10412052;28;20265;-68
2022/06/18 07:06:20;;;;;;;3.27;1.70;;;38.50;32.00;;;;;;10437034;28;20569;-69
2022/06/18 07:11:21;;;;;;;4.40;2.10;;;38.70;31.60;;;;;;10431634;28;20220;-69
2022/06/18 07:16:22;;;;;;;3.93;1.90;;;39.60;31.10;;;;;;10420213;28;20252;-69
2022/06/18 07:21:23;;;;;;;4.60;2.20;;;39.90;30.30;;;;;;10436434;28;20265;-69
2022/06/18 07:26:23;;;;;;;5.37;2.27;;;39.60;30.40;;;;;;10420300;28;20366;-69
2022/06/18 07:31:27;;;;;;;3.30;1.90;;;39.90;30.20;;;;;;10430962;28;20216;-69
2022/06/18 07:36:30;;;;;;;5.30;2.13;;;40.30;30.50;;;;;;10434280;28;20316;-69
2022/06/18 07:41:38;;;;;;;2.73;2.00;;;41.30;29.10;;;;;;10429487;28;20224;-70
2022/06/18 07:46:39;;;;;;;3.57;1.70;;;41.60;28.80;;;;;;10434166;28;20273;-69
2022/06/18 07:51:39;;;;;;;3.43;2.10;;;42.10;28.10;;;;;;10433131;28;20227;-69
2022/06/18 07:56:40;;;;;;;3.40;1.93;;;42.00;28.60;;;;;;10434837;28;20232;-69
2022/06/18 08:01:41;;;;;;;5.57;2.15;;;42.60;28.30;;;;;;10431976;28;20236;-70
2022/06/18 08:06:41;;;;;;;7.93;2.03;;;42.90;27.40;;;;;;10429695;28;20234;-70
2022/06/18 08:11:42;;;;;;;8.05;2.45;;;42.80;27.30;;;;;;10427615;28;20243;-69
2022/06/18 08:16:44;;;;;;;5.72;2.10;;;43.10;27.40;;;;;;10426171;28;20263;-69
2022/06/18 08:21:45;;;;;;;3.47;1.90;;;44.20;26.60;;;;;;10426771;28;20224;-69
2022/06/18 08:26:48;;;;;;;5.60;2.10;;;44.70;25.90;;;;;;10429617;28;20231;-68
2022/06/18 08:31:48;;;;;;;2.35;2.13;;;44.70;26.00;;;;;;10424923;28;20291;-69
2022/06/18 08:36:52;;;;;;;15.93;2.78;;;44.60;26.10;;;;;;10429127;28;20216;-69
2022/06/18 08:42:18;;;;;;;3.30;2.15;;;44.80;26.20;;;;;;10433427;28;20265;-68
2022/06/18 08:47:43;;;;;;;5.32;2.15;;;44.80;25.80;;;;;;10432552;28;20227;-69
2022/06/18 08:53:05;;;;;;;7.35;2.17;;;45.40;25.80;;;;;;10423304;28;20212;-69
2022/06/18 08:58:16;;;;;;;6.10;2.25;;;45.20;25.80;;;;;;10424757;28;20243;-69
2022/06/18 09:03:53;;;;;;;4.28;2.10;;;45.60;25.30;;;;;;10424856;28;20270;-68
2022/06/18 09:09:30;;;;;;;4.65;2.03;;;46.00;25.50;;;;;;10419574;28;20212;-69
2022/06/18 09:14:49;;;;;;;5.22;1.90;;;46.90;24.90;;;;;;10422797;28;20230;-69
2022/06/18 09:20:01;;;;;;;2.22;2.03;;;47.60;23.80;;;;;;10432629;28;20761;-69
2022/06/18 09:25:10;;;;;;;5.38;2.10;;;47.60;24.10;;;;;;10429538;28;20220;-68
2022/06/18 09:30:21;;;;;;;3.22;2.30;;;47.90;24.10;;;;;;10423528;28;20244;-70
2022/06/18 09:35:31;;;;;;;5.80;1.90;;;48.20;23.60;;;;;;10412568;28;20181;-69
2022/06/18 09:40:37;;;;;;;2.60;2.00;;;48.60;23.50;;;;;;10425779;28;20248;-69
2022/06/18 09:45:50;;;;;;;5.63;2.10;;;48.80;23.10;;;;;;10439298;28;20587;-68
2022/06/18 09:50:55;;;;;;;3.40;2.20;;;48.90;23.10;;;;;;10435703;28;20283;-69
2022/06/18 09:56:01;;;;;;;3.53;1.88;;;49.30;22.50;;;;;;10428021;28;20314;-69
2022/06/18 10:01:03;;;;;;;5.22;2.28;;;49.60;22.30;;;;;;10432071;28;20229;-69
2022/06/18 10:11:27;;;;;;;4.30;2.03;;;49.40;22.10;;;;;;10421251;28;20217;-69
2022/06/18 10:16:47;;;;;;;4.40;2.00;;;49.40;22.70;;;;;;10438306;28;20614;-69
2022/06/18 10:22:13;;;;;;;2.88;1.90;;;50.00;22.30;;;;;;10433362;28;20219;-69
2022/06/18 10:27:36;;;;;;;9.57;2.65;;;50.00;22.10;;;;;;10431238;28;20757;-69
2022/06/18 10:33:15;;;;;;;3.63;2.05;;;49.70;21.90;;;;;;10426724;28;20298;-69
2022/06/18 10:38:22;;;;;;;4.05;2.10;;;49.70;22.20;;;;;;10426210;28;20289;-68
2022/06/18 10:43:48;;;;;;;5.03;1.88;;;49.70;22.10;;;;;;10421656;28;20217;-68
2022/06/18 10:49:01;;;;;;;4.22;1.95;;;49.40;21.80;;;;;;10433094;28;20347;-69
2022/06/18 10:54:02;;;;;;;6.93;2.30;;;49.70;22.00;;;;;;10427543;28;20208;-69
2022/06/18 10:59:03;;;;;;;5.55;2.63;;;49.70;22.10;;;;;;10430809;28;20236;-69
2022/06/18 11:04:37;;;;;;;5.15;2.45;;;49.30;21.90;;;;;;10428075;28;20244;-69
2022/06/18 11:09:56;;;;;;;7.53;2.30;;;48.60;22.70;;;;;;10415906;28;20216;-69
2022/06/18 11:14:56;;;;;;;6.18;2.50;;;48.10;22.90;;;;;;10431031;28;20220;-69
2022/06/18 11:20:28;;;;;;;11.90;2.90;;;47.80;23.70;;;;;;10428075;28;20221;-68
2022/06/18 11:25:43;;;;;;;10.55;3.15;;;47.50;23.00;;;;;;10399850;28;20251;-70
2022/06/18 11:30:47;;;;;;;9.65;3.53;;;47.60;23.10;;;;;;10427113;28;20303;-70
2022/06/18 11:35:50;;;;;;;4.85;2.53;;;47.70;22.90;;;;;;10431631;28;20273;-69
2022/06/18 11:40:53;;;;;;;9.40;2.43;;;46.50;23.50;;;;;;10431959;28;20224;-69
2022/06/18 11:46:06;;;;;;;8.50;3.23;;;43.90;25.10;;;;;;10431894;28;20231;-70
2022/06/18 11:51:17;;;;;;;12.13;3.00;;;41.50;26.40;;;;;;10429522;28;20217;-69
2022/06/18 11:56:31;;;;;;;10.50;3.30;;;39.30;27.90;;;;;;10435965;28;20216;-69
2022/06/18 12:01:39;;;;;;;10.60;2.87;;;38.50;28.40;;;;;;10433743;28;20219;-69
2022/06/18 12:06:57;;;;;;;10.37;3.13;;;37.90;29.70;;;;;;10424395;28;20259;-69
2022/06/18 12:12:43;;;;;;;4.87;2.70;;;37.70;29.70;;;;;;10426278;28;20215;-69
2022/06/18 12:17:48;;;;;;;12.23;3.07;;;37.80;30.40;;;;;;10354689;28;20603;-69
2022/06/18 12:23:12;;;;;;;9.13;2.67;;;37.70;29.60;;;;;;10430228;28;20209;-68
2022/06/18 12:28:23;;;;;;;16.27;3.13;;;37.60;30.00;;;;;;10434104;28;20224;-69
2022/06/18 12:34:02;;;;;;;10.40;2.80;;;37.50;29.90;;;;;;10418607;28;20220;-69
2022/06/18 12:39:35;;;;;;;13.90;2.80;;;37.40;30.90;;;;;;10426847;28;20232;-69
2022/06/18 12:44:50;;;;;;;9.77;3.23;;;37.10;31.00;;;;;;10421387;28;20706;-69
2022/06/18 12:49:59;;;;;;;6.07;2.70;;;36.90;30.80;;;;;;10429038;28;20232;-69
2022/06/18 12:55:02;;;;;;;12.57;3.30;;;36.90;31.10;;;;;;10432493;28;20209;-67
2022/06/18 13:00:14;;;;;;;9.83;2.60;;;36.80;30.70;;;;;;10422262;28;20277;-68
2022/06/18 13:05:51;;;;;;;8.43;2.70;;;36.80;31.40;;;;;;10424477;28;20220;-69
2022/06/18 13:11:10;;;;;;;10.63;3.20;;;36.90;31.10;;;;;;10421307;28;20895;-68
2022/06/18 13:16:14;;;;;;;11.30;3.50;;;36.60;31.70;;;;;;10428937;28;20269;-69
2022/06/18 13:21:15;;;;;;;8.03;2.87;;;36.30;31.20;;;;;;10433263;28;20303;-69
2022/06/18 13:31:57;;;;;;;8.13;3.10;;;36.50;31.30;;;;;;10437084;28;20227;-69
2022/06/18 13:37:10;;;;;;;13.27;3.00;;;36.70;31.90;;;;;;10433665;28;20232;-67
2022/06/18 13:42:19;;;;;;;11.83;3.10;;;36.70;31.20;;;;;;10433013;28;20220;-67
2022/06/18 13:47:38;;;;;;;12.77;3.30;;;36.70;31.10;;;;;;10431724;28;20224;-67
2022/06/18 13:52:44;;;;;;;20.90;3.47;;;36.70;30.30;;;;;;10429553;28;20247;-68
2022/06/18 13:57:49;;;;;;;13.93;3.40;;;36.60;30.50;;;;;;10432687;28;20243;-68
2022/06/18 14:03:03;;;;;;;11.83;3.57;;;36.60;29.80;;;;;;10435200;28;20209;-68
2022/06/18 14:08:05;;;;;;;14.13;3.90;;;36.40;29.60;;;;;;10428427;28;20631;-67
2022/06/18 14:13:12;;;;;;;19.73;4.07;;;36.40;29.70;;;;;;10433057;28;20664;-68
2022/06/18 14:18:19;;;;;;;15.17;3.90;;;36.40;29.50;;;;;;10437605;28;20609;-67
2022/06/18 14:23:41;;;;;;;15.83;4.50;;;36.20;30.00;;;;;;10429786;28;20307;-69
2022/06/18 14:28:56;;;;;;;18.27;4.50;;;36.20;29.90;;;;;;10426497;28;20226;-68
2022/06/18 14:34:02;;;;;;;16.27;4.40;;;36.20;29.70;;;;;;10433437;28;20220;-69
2022/06/18 14:39:14;;;;;;;20.50;4.43;;;36.20;29.70;;;;;;10435595;28;20220;-69
2022/06/18 14:44:50;;;;;;;16.67;3.53;;;36.30;29.80;;;;;;10430459;28;20283;-68
2022/06/18 14:50:21;;;;;;;16.97;4.53;;;36.30;30.00;;;;;;10429282;28;20219;-68
2022/06/18 14:55:44;;;;;;;27.00;4.67;;;36.30;29.70;;;;;;10429961;28;20243;-68
2022/06/18 15:01:06;;;;;;;33.83;5.27;;;36.20;29.60;;;;;;10423718;28;20439;-68
2022/06/18 15:06:10;;;;;;;17.80;4.43;;;36.20;29.90;;;;;;10435781;28;20686;-69
2022/06/18 15:11:14;;;;;;;15.33;4.10;;;36.10;30.00;;;;;;10429558;28;20220;-67
2022/06/18 15:16:26;;;;;;;17.07;3.80;;;36.10;30.10;;;;;;10428199;28;21006;-68
2022/06/18 15:26:42;;;;;;;15.73;3.70;;;35.70;30.80;;;;;;10433797;28;20296;-69
2022/06/18 15:31:44;;;;;;;18.80;3.17;;;35.70;31.00;;;;;;10430857;28;20212;-69
2022/06/18 15:36:45;;;;;;;21.10;4.17;;;35.60;31.90;;;;;;10432790;28;20217;-69
2022/06/18 15:41:48;;;;;;;24.13;3.80;;;35.70;31.30;;;;;;10430801;28;20227;-68
2022/06/18 15:46:56;;;;;;;14.73;3.57;;;35.70;31.60;;;;;;10426776;28;20773;-69
2022/06/18 15:51:58;;;;;;;14.03;3.80;;;35.60;31.80;;;;;;10435849;28;20298;-69
2022/06/18 15:57:23;;;;;;;15.37;3.83;;;35.60;31.80;;;;;;10429566;28;20232;-68
2022/06/18 16:02:26;;;;;;;13.53;3.63;;;35.60;31.80;;;;;;10413109;28;20378;-69
2022/06/18 16:07:27;;;;;;;14.40;3.80;;;35.50;31.60;;;;;;10426858;28;20316;-69
2022/06/18 16:12:37;;;;;;;16.30;3.73;;;35.30;31.40;;;;;;10433700;28;20219;-69
2022/06/18 16:17:43;;;;;;;24.13;4.60;;;35.20;31.90;;;;;;10434153;28;20223;-69
2022/06/18 16:23:05;;;;;;;15.10;3.53;;;35.20;31.50;;;;;;10429439;28;20223;-69
2022/06/18 16:28:19;;;;;;;14.53;4.30;;;35.20;31.70;;;;;;10427766;28;20224;-68
2022/06/18 16:33:33;;;;;;;16.30;4.00;;;35.10;31.90;;;;;;10433943;28;20933;-69
2022/06/18 16:38:44;;;;;;;16.00;4.10;;;35.00;32.70;;;;;;10427315;28;20702;-68
2022/06/18 16:43:50;;;;;;;12.73;3.80;;;34.90;32.30;;;;;;10425488;28;20751;-68
2022/06/18 16:49:00;;;;;;;23.77;4.30;;;34.90;32.30;;;;;;10425887;28;20726;-68
2022/06/18 16:54:03;;;;;;;22.53;4.33;;;34.70;31.90;;;;;;10430519;28;20220;-68
2022/06/18 16:59:10;;;;;;;18.30;4.33;;;34.60;32.00;;;;;;10426759;28;20304;-68
2022/06/18 17:04:10;;;;;;;18.93;4.20;;;34.60;32.70;;;;;;10432265;28;20249;-68
2022/06/18 17:09:11;;;;;;;19.33;4.20;;;34.50;32.40;;;;;;10426152;28;21000;-69
2022/06/18 17:14:14;;;;;;;18.73;4.00;;;34.40;32.60;;;;;;10424858;28;20217;-70
2022/06/18 17:19:16;;;;;;;16.20;3.83;;;34.30;32.70;;;;;;10425627;28;20294;-68
2022/06/18 17:34:59;;;;;;;17.27;4.73;;;34.00;34.60;;;;;;10424187;28;20262;-68
2022/06/18 17:40:00;;;;;;;22.47;4.27;;;33.90;35.30;;;;;;10424620;28;20730;-70
2022/06/18 17:45:02;;;;;;;18.83;5.10;;;33.70;35.90;;;;;;10429615;28;20557;-68
2022/06/18 17:50:03;;;;;;;14.90;4.27;;;33.60;36.30;;;;;;10421085;28;20269;-69
2022/06/18 17:55:04;;;;;;;21.03;4.53;;;33.50;36.70;;;;;;10424731;28;20255;-68
2022/06/18 18:00:07;;;;;;;18.90;4.20;;;33.40;37.10;;;;;;10429925;28;20232;-69
2022/06/18 18:05:08;;;;;;;22.23;4.40;;;33.30;37.40;;;;;;10428023;28;20177;-68
2022/06/18 18:10:11;;;;;;;19.97;4.37;;;33.10;37.80;;;;;;10438473;28;20651;-68
2022/06/18 18:15:18;;;;;;;17.57;4.07;;;33.10;38.30;;;;;;10433250;28;20196;-68
2022/06/18 18:20:22;;;;;;;17.33;3.90;;;32.90;38.20;;;;;;10438652;28;20208;-68
2022/06/18 18:25:24;;;;;;;18.60;4.23;;;32.80;38.80;;;;;;10423506;28;20219;-68
2022/06/18 18:30:25;;;;;;;16.77;4.20;;;32.60;39.10;;;;;;10438801;28;20199;-69
2022/06/18 18:35:25;;;;;;;19.33;4.10;;;32.50;39.70;;;;;;10430953;28;20758;-68
2022/06/18 18:40:26;;;;;;;22.10;4.23;;;32.30;40.30;;;;;;10438206;28;20232;-68
2022/06/18 18:45:27;;;;;;;16.67;4.03;;;32.20;40.50;;;;;;10438123;28;20243;-68
2022/06/18 18:50:29;;;;;;;17.30;4.00;;;32.00;40.90;;;;;;10431309;28;20219;-69
2022/06/18 18:55:30;;;;;;;16.77;4.20;;;31.80;41.40;;;;;;10436638;28;20606;-68
2022/06/18 19:00:31;;;;;;;22.73;4.73;;;31.60;41.90;;;;;;10435952;28;20234;-69
2022/06/18 19:05:32;;;;;;;17.13;4.60;;;31.40;42.10;;;;;;10438842;28;20222;-68
2022/06/18 19:10:35;;;;;;;17.43;4.30;;;31.20;42.20;;;;;;10417862;28;20228;-68
2022/06/18 19:15:49;;;;;;;14.63;4.63;;;31.10;42.10;;;;;;10430182;28;20212;-68
2022/06/18 19:20:50;;;;;;;19.27;4.63;;;31.00;42.20;;;;;;10434030;28;20228;-68
2022/06/18 19:25:52;;;;;;;20.93;4.40;;;30.90;42.40;;;;;;10432294;28;20274;-69
2022/06/18 19:30:57;;;;;;;20.53;4.00;;;30.80;42.40;;;;;;10431730;28;20244;-68
2022/06/18 19:35:58;;;;;;;17.20;4.30;;;30.70;42.40;;;;;;10438313;28;20334;-69
2022/06/18 19:40:59;;;;;;;19.73;4.40;;;30.50;42.80;;;;;;10437796;28;20282;-69
2022/06/18 19:46:00;;;;;;;18.27;4.30;;;30.40;43.20;;;;;;10434745;28;20224;-70
2022/06/18 19:51:01;;;;;;;17.13;4.33;;;30.30;43.50;;;;;;10432312;28;20663;-71
2022/06/18 19:56:02;;;;;;;26.47;5.07;;;30.20;43.80;;;;;;10427603;28;20304;-69
2022/06/18 20:01:03;;;;;;;23.40;4.80;;;30.00;44.00;;;;;;10429279;28;20750;-69
2022/06/18 20:06:04;;;;;;;18.83;4.37;;;30.00;44.00;;;;;;10431048;28;20645;-68
2022/06/18 20:11:05;;;;;;;21.93;4.47;;;29.80;44.00;;;;;;10431224;28;20257;-69
2022/06/18 20:16:06;;;;;;;17.23;4.50;;;29.80;43.90;;;;;;10434956;28;20714;-69
2022/06/18 20:21:08;;;;;;;17.63;3.80;;;29.90;43.70;;;;;;10436266;28;20223;-70
2022/06/18 20:26:09;;;;;;;15.80;4.40;;;29.90;43.50;;;;;;10433681;28;20216;-68
2022/06/18 20:31:10;;;;;;;17.83;4.13;;;29.90;43.40;;;;;;10436228;28;20226;-69
2022/06/18 20:36:11;;;;;;;19.30;4.27;;;29.90;43.50;;;;;;10427145;28;20298;-69
2022/06/18 20:41:11;;;;;;;18.40;4.17;;;29.90;43.60;;;;;;10426779;28;20240;-68
2022/06/18 20:46:17;;;;;;;23.63;4.80;;;29.80;43.70;;;;;;10426485;28;20650;-69
2022/06/18 20:51:29;;;;;;;21.27;5.27;;;29.80;44.00;;;;;;10435318;28;20224;-69
2022/06/18 21:01:49;;;;;;;15.70;4.30;;;29.70;44.20;;;;;;10424990;28;20224;-68
2022/06/18 21:06:51;;;;;;;19.43;4.50;;;29.60;44.30;;;;;;10434648;28;20242;-70
2022/06/18 21:11:52;;;;;;;24.80;4.10;;;29.60;44.30;;;;;;10423978;28;20236;-69
2022/06/18 21:16:53;;;;;;;18.83;4.37;;;29.60;44.40;;;;;;10430078;28;20220;-70
2022/06/18 21:21:54;;;;;;;17.10;4.10;;;29.50;44.40;;;;;;10431138;28;20227;-68
2022/06/18 21:26:56;;;;;;;16.33;4.37;;;29.40;44.40;;;;;;10427164;28;20209;-68
2022/06/18 21:37:19;;;;;;;20.37;4.50;;;29.40;44.10;;;;;;10436706;28;20228;-68
2022/06/18 21:42:19;;;;;;;18.80;4.33;;;29.40;43.70;;;;;;10434123;28;20676;-69
2022/06/18 21:47:20;;;;;;;22.60;4.50;;;29.50;43.50;;;;;;10433310;28;20224;-69
2022/06/18 21:52:21;;;;;;;19.07;4.53;;;29.60;43.30;;;;;;10441673;28;20228;-69
2022/06/18 21:57:33;;;;;;;19.10;4.37;;;29.60;43.30;;;;;;10427523;28;20224;-69
2022/06/18 22:02:34;;;;;;;22.07;5.17;;;29.60;43.10;;;;;;10432926;28;20216;-70
2022/06/18 22:07:34;;;;;;;17.07;4.30;;;29.60;42.90;;;;;;10425291;28;20220;-69
2022/06/18 22:17:55;;;;;;;23.77;4.93;;;29.40;42.70;;;;;;10440447;28;20608;-69
2022/06/18 22:22:55;;;;;;;18.60;4.13;;;29.40;42.70;;;;;;10436132;28;20216;-70
2022/06/18 22:27:57;;;;;;;22.90;4.80;;;29.30;42.50;;;;;;10435332;28;20220;-69
2022/06/18 22:32:58;;;;;;;20.03;3.90;;;29.30;42.50;;;;;;10438821;28;20767;-70
2022/06/18 22:37:59;;;;;;;16.40;4.43;;;29.40;42.50;;;;;;10430961;28;20235;-69
2022/06/18 22:43:03;;;;;;;25.07;4.90;;;29.40;42.10;;;;;;10435849;28;20319;-67
2022/06/18 22:48:04;;;;;;;25.40;4.97;;;29.50;41.80;;;;;;10423440;28;20228;-68
2022/06/18 22:53:28;;;;;;;20.27;4.17;;;29.50;41.80;;;;;;10430329;28;20688;-70
2022/06/18 22:58:29;;;;;;;24.93;4.77;;;29.40;41.50;;;;;;10416396;28;20228;-69
2022/06/18 23:03:30;;;;;;;21.67;4.63;;;29.40;40.60;;;;;;10430838;28;20216;-68
2022/06/18 23:08:34;;;;;;;22.83;4.70;;;29.40;40.60;;;;;;10437491;28;20311;-69
2022/06/18 23:13:35;;;;;;;24.20;4.57;;;29.40;40.90;;;;;;10430797;28;20216;-69
2022/06/18 23:18:36;;;;;;;20.87;4.80;;;29.30;41.10;;;;;;10438983;28;20247;-69
2022/06/18 23:23:37;;;;;;;20.60;4.03;;;29.20;41.10;;;;;;10439086;28;20219;-70
2022/06/18 23:28:38;;;;;;;18.90;4.10;;;29.10;41.00;;;;;;10435668;28;20581;-70
2022/06/18 23:33:42;;;;;;;23.00;4.43;;;29.20;41.20;;;;;;10420917;28;20675;-70
2022/06/18 23:38:43;;;;;;;23.33;4.30;;;29.10;41.60;;;;;;10429843;28;20224;-70
2022/06/18 23:43:44;;;;;;;14.97;4.03;;;29.00;42.00;;;;;;10432388;28;20215;-69
2022/06/18 23:48:45;;;;;;;25.47;4.20;;;28.80;42.20;;;;;;10440050;28;20236;-69
2022/06/18 23:53:46;;;;;;;23.23;4.90;;;28.40;45.30;;;;;;10433445;28;20216;-70
2022/06/18 23:58:47;;;;;;;16.27;5.70;;;27.80;48.10;;;;;;10432024;28;20595;-69
